createdAt,value
2022-09-09T00:01:10.189Z,49.88
2022-09-09T00:06:22.359Z,50.37
2022-09-09T00:11:50.176Z,50.36
2022-09-09T00:16:56.780Z,50.77
2022-09-09T00:22:18.608Z,50.86
2022-09-09T00:27:43.443Z,51.16
2022-09-09T00:32:45.711Z,51.29
2022-09-09T00:37:49.973Z,51.61
2022-09-09T00:43:04.901Z,52.17
2022-09-09T00:48:12.624Z,52.00
2022-09-09T00:53:25.420Z,52.19
2022-09-09T00:58:28.572Z,52.43
2022-09-09T01:03:38.336Z,52.41
2022-09-09T01:09:14.100Z,52.58
2022-09-09T01:14:37.766Z,52.77
2022-09-09T01:19:43.851Z,53.22
2022-09-09T01:25:10.248Z,53.19
2022-09-09T01:30:38.801Z,53.94
2022-09-09T01:36:04.360Z,53.85
2022-09-09T01:41:12.075Z,53.94
2022-09-09T01:46:29.840Z,54.13
2022-09-09T01:51:32.419Z,54.05
2022-09-09T01:57:16.248Z,53.95
2022-09-09T02:02:27.637Z,54.01
2022-09-09T02:07:41.593Z,53.79
2022-09-09T02:13:02.561Z,53.69
2022-09-09T02:18:08.964Z,53.67
2022-09-09T02:23:12.761Z,53.57
2022-09-09T02:28:17.714Z,53.43
2022-09-09T02:33:20.525Z,53.43
2022-09-09T02:38:29.903Z,53.19
2022-09-09T02:43:43.673Z,53.20
2022-09-09T02:49:00.530Z,52.98
2022-09-09T02:54:21.918Z,52.98
2022-09-09T02:59:26.307Z,53.10
2022-09-09T03:04:29.093Z,53.12
2022-09-09T03:09:33.748Z,53.36
2022-09-09T03:14:36.011Z,53.46
2022-09-09T03:19:38.560Z,53.67
2022-09-09T03:24:42.596Z,53.65
2022-09-09T03:29:45.960Z,53.85
2022-09-09T03:34:51.145Z,54.03
2022-09-09T03:39:55.547Z,53.97
2022-09-09T03:44:58.856Z,54.27
2022-09-09T03:50:01.110Z,54.62
2022-09-09T03:55:05.043Z,54.84
2022-09-09T04:00:08.651Z,54.91
2022-09-09T04:05:21.288Z,55.04
2022-09-09T04:10:24.275Z,55.03
2022-09-09T04:15:26.723Z,55.07
2022-09-09T04:20:28.448Z,54.87
2022-09-09T04:25:30.182Z,54.89
2022-09-09T04:30:32.811Z,54.80
2022-09-09T04:35:34.914Z,54.40
2022-09-09T04:40:36.811Z,54.52
2022-09-09T04:45:38.530Z,54.77
2022-09-09T04:50:41.554Z,54.61
2022-09-09T04:55:45.886Z,54.77
2022-09-09T05:00:48.176Z,54.65
2022-09-09T05:05:51.260Z,54.73
2022-09-09T05:10:52.860Z,54.99
2022-09-09T05:15:55.706Z,55.13
2022-09-09T05:21:01.669Z,55.00
2022-09-09T05:26:04.795Z,55.18
2022-09-09T05:31:13.651Z,55.03
2022-09-09T05:36:21.218Z,55.05
2022-09-09T05:41:25.515Z,54.85
2022-09-09T05:46:30.301Z,54.83
2022-09-09T05:51:32.082Z,54.94
2022-09-09T05:56:38.054Z,54.62
2022-09-09T06:01:42.102Z,54.69
2022-09-09T06:06:50.779Z,54.78
2022-09-09T06:11:55.300Z,55.19
2022-09-09T06:16:58.053Z,55.05
2022-09-09T06:22:03.999Z,55.25
2022-09-09T06:27:08.874Z,55.36
2022-09-09T06:32:11.823Z,55.35
2022-09-09T06:37:13.470Z,55.32
2022-09-09T06:42:22.719Z,55.37
2022-09-09T06:47:25.625Z,55.23
2022-09-09T06:52:27.763Z,55.35
2022-09-09T06:57:37.220Z,55.15
2022-09-09T07:02:42.082Z,55.42
2022-09-09T07:07:45.020Z,55.06
2022-09-09T07:12:53.923Z,54.77
2022-09-09T07:18:02.212Z,54.70
2022-09-09T07:23:04.530Z,54.37
2022-09-09T07:28:06.309Z,54.38
2022-09-09T07:33:08.496Z,54.26
2022-09-09T07:38:10.480Z,54.40
2022-09-09T07:43:17.145Z,54.73
2022-09-09T07:48:19.451Z,54.60
2022-09-09T07:53:21.045Z,55.01
2022-09-09T07:58:22.673Z,54.76
2022-09-09T08:03:24.704Z,54.97
2022-09-09T08:08:26.342Z,54.99
2022-09-09T08:13:28.124Z,55.04
2022-09-09T08:18:29.686Z,54.79
2022-09-09T08:23:31.140Z,54.45
2022-09-09T08:28:32.729Z,54.61
2022-09-09T08:33:34.554Z,54.93
2022-09-09T08:38:36.948Z,55.10
2022-09-09T08:43:40.070Z,54.99
2022-09-09T08:48:59.286Z,54.94
2022-09-09T08:54:04.183Z,55.20
2022-09-09T08:59:14.326Z,55.12
2022-09-09T09:04:38.050Z,55.06
2022-09-09T09:09:59.733Z,55.11
2022-09-09T09:15:02.241Z,55.15
2022-09-09T09:20:04.314Z,54.72
2022-09-09T09:25:21.344Z,54.79
2022-09-09T09:30:30.386Z,54.59
2022-09-09T09:35:41.938Z,54.49
2022-09-09T09:40:59.010Z,54.45
2022-09-09T09:46:17.710Z,54.43
2022-09-09T09:51:24.580Z,54.32
2022-09-09T09:56:30.059Z,54.32
2022-09-09T10:01:34.920Z,54.37
2022-09-09T10:06:40.830Z,54.67
2022-09-09T10:11:57.092Z,54.22
2022-09-09T10:17:28.138Z,54.14
2022-09-09T10:22:35.116Z,53.75
2022-09-09T10:27:47.590Z,53.21
2022-09-09T10:32:56.599Z,53.11
2022-09-09T10:38:16.863Z,53.35
2022-09-09T10:43:43.235Z,52.58
2022-09-09T10:49:27.788Z,52.37
2022-09-09T10:55:11.476Z,52.08
2022-09-09T11:00:20.545Z,51.51
2022-09-09T11:05:29.804Z,51.66
2022-09-09T11:10:53.521Z,51.29
2022-09-09T11:16:02.219Z,49.51
2022-09-09T11:21:06.698Z,49.45
2022-09-09T11:26:11.986Z,49.50
2022-09-09T11:31:16.575Z,49.26
2022-09-09T11:36:36.152Z,49.42
2022-09-09T11:41:38.620Z,48.71
2022-09-09T11:46:42.500Z,48.16
2022-09-09T11:51:44.079Z,47.03
2022-09-09T11:56:46.974Z,47.02
2022-09-09T12:01:57.417Z,47.39
2022-09-09T12:07:06.869Z,47.07
2022-09-09T12:12:14.705Z,46.86
2022-09-09T12:17:26.432Z,46.74
2022-09-09T12:22:31.854Z,45.71
2022-09-09T12:27:46.717Z,46.32
2022-09-09T12:32:48.219Z,46.28
2022-09-09T12:38:00.995Z,46.84
2022-09-09T12:43:23.421Z,47.08
2022-09-09T12:48:45.145Z,46.93
2022-09-09T12:53:47.349Z,45.96
2022-09-09T12:58:52.512Z,45.96
2022-09-09T13:03:54.583Z,45.29
2022-09-09T13:09:00.169Z,44.82
2022-09-09T13:14:02.381Z,44.62
2022-09-09T13:19:16.926Z,44.36
2022-09-09T13:24:30.346Z,44.72
2022-09-09T13:29:33.232Z,44.56
2022-09-09T13:34:36.489Z,44.15
2022-09-09T13:39:38.616Z,44.13
2022-09-09T13:44:42.633Z,44.66
2022-09-09T13:49:44.190Z,44.38
2022-09-09T13:54:50.886Z,44.88
2022-09-09T14:00:10.998Z,45.08
2022-09-09T14:05:12.742Z,45.14
2022-09-09T14:10:14.372Z,44.55
2022-09-09T14:15:16.214Z,44.51
2022-09-09T14:20:18.643Z,44.63
2022-09-09T14:25:20.240Z,44.43
2022-09-09T14:30:21.736Z,43.95
2022-09-09T14:35:27.579Z,44.16
2022-09-09T14:40:31.976Z,43.61
2022-09-09T14:45:34.770Z,43.41
2022-09-09T14:50:41.868Z,43.22
2022-09-09T14:55:45.559Z,43.37
2022-09-09T15:00:50.233Z,43.30
2022-09-09T15:05:52.171Z,42.97
2022-09-09T15:11:01.071Z,43.48
2022-09-09T15:16:16.490Z,43.30
2022-09-09T15:21:20.608Z,43.39
2022-09-09T15:26:22.265Z,43.30
2022-09-09T15:31:26.300Z,43.31
2022-09-09T15:36:36.172Z,43.70
2022-09-09T15:41:37.699Z,43.88
2022-09-09T15:46:42.098Z,43.85
2022-09-09T15:51:48.626Z,44.13
2022-09-09T15:56:58.593Z,44.27
2022-09-09T16:02:01.055Z,44.34
2022-09-09T16:07:05.084Z,44.24
2022-09-09T16:12:12.805Z,44.67
2022-09-09T16:17:15.207Z,44.70
2022-09-09T16:22:17.139Z,44.64
2022-09-09T16:27:19.047Z,42.93
2022-09-09T16:32:21.206Z,43.20
2022-09-09T16:37:22.671Z,44.09
2022-09-09T16:42:24.132Z,45.03
2022-09-09T16:47:26.302Z,43.89
2022-09-09T16:52:27.784Z,43.68
2022-09-09T16:57:31.175Z,43.97
2022-09-09T17:02:32.774Z,43.78
2022-09-09T17:07:34.293Z,43.33
2022-09-09T17:12:39.712Z,43.46
2022-09-09T17:17:46.026Z,43.89
2022-09-09T17:22:47.495Z,44.17
2022-09-09T17:27:48.998Z,45.04
2022-09-09T17:32:50.516Z,45.55
2022-09-09T17:37:54.342Z,45.87
2022-09-09T17:42:58.090Z,46.17
2022-09-09T17:47:59.647Z,46.19
2022-09-09T17:53:01.412Z,46.13
2022-09-09T17:58:03.156Z,46.52
2022-09-09T18:03:04.917Z,46.83
2022-09-09T18:08:06.553Z,47.28
2022-09-09T18:13:09.977Z,47.54
2022-09-09T18:18:11.524Z,47.67
2022-09-09T18:23:13.356Z,47.92
2022-09-09T18:28:15.139Z,48.10
2022-09-09T18:33:16.696Z,48.03
2022-09-09T18:38:18.443Z,48.41
2022-09-09T18:43:19.991Z,48.58
2022-09-09T18:48:23.871Z,48.38
2022-09-09T18:53:25.391Z,48.44
2022-09-09T18:58:27.220Z,48.42
2022-09-09T19:03:30.110Z,48.35
2022-09-09T19:08:37.230Z,48.58
2022-09-09T19:13:39.462Z,48.79
2022-09-09T19:18:44.825Z,48.95
2022-09-09T19:23:47.695Z,49.17
2022-09-09T19:28:50.224Z,49.28
2022-09-09T19:33:52.796Z,49.55
2022-09-09T19:38:55.764Z,49.44
2022-09-09T19:44:03.090Z,49.39
2022-09-09T19:49:06.738Z,49.37
2022-09-09T19:54:11.431Z,49.54
2022-09-09T19:59:13.575Z,49.59
2022-09-09T20:04:15.449Z,49.86
2022-09-09T20:09:18.263Z,49.86
2022-09-09T20:14:20.084Z,49.95
2022-09-09T20:19:22.729Z,50.23
2022-09-09T20:24:26.302Z,50.31
2022-09-09T20:29:27.859Z,50.42
2022-09-09T20:34:30.131Z,51.00
2022-09-09T20:39:32.801Z,50.83
2022-09-09T20:44:34.389Z,50.94
2022-09-09T20:49:35.883Z,50.98
2022-09-09T20:54:39.012Z,51.04
2022-09-09T20:59:41.953Z,51.04
2022-09-09T21:04:44.958Z,51.36
2022-09-09T21:09:46.444Z,51.19
2022-09-09T21:14:47.971Z,51.29
2022-09-09T21:19:49.482Z,51.51
2022-09-09T21:24:51.243Z,51.38
2022-09-09T21:29:52.924Z,51.42
2022-09-09T21:34:54.424Z,51.43
2022-09-09T21:39:55.957Z,51.70
2022-09-09T21:44:57.734Z,51.80
2022-09-09T21:50:01.124Z,51.96
2022-09-09T21:55:02.659Z,51.61
2022-09-09T22:00:08.869Z,51.77
2022-09-09T22:05:14.438Z,52.08
2022-09-09T22:10:16.168Z,52.21
2022-09-09T22:15:17.849Z,52.20
2022-09-09T22:20:19.358Z,52.29
2022-09-09T22:25:21.991Z,52.56
2022-09-09T22:30:23.528Z,52.01
2022-09-09T22:35:25.070Z,52.44
2022-09-09T22:40:26.587Z,52.55
2022-09-09T22:45:28.113Z,52.44
2022-09-09T22:50:37.846Z,52.62
2022-09-09T22:55:41.895Z,52.54
2022-09-09T23:00:43.374Z,52.57
2022-09-09T23:05:53.580Z,52.42
2022-09-09T23:10:55.788Z,52.50
2022-09-09T23:15:57.704Z,52.78
2022-09-09T23:21:02.236Z,52.80
2022-09-09T23:26:05.251Z,52.73
2022-09-09T23:31:09.871Z,52.57
2022-09-09T23:36:14.910Z,52.64
2022-09-09T23:41:21.741Z,52.57
2022-09-09T23:46:27.685Z,52.67
2022-09-09T23:51:34.732Z,52.64
2022-09-09T23:56:39.178Z,52.59
